KFFT/FFT METAR and TAF weather

Enter ICAO airport designator
Station Type Date Time Source
KFFT METAR 2020/02/20 15:53 UTC NOAA

KFFT 201553Z AUTO 03011KT 10SM CLR 01/M07 A3051 RMK AO2 SLP338 T00111067


Station Type Date Time Source
KFFT Decoded METAR 2020/02/20 15:53 UTC NOAA

FRANKFORT CAPITAL CITY AIRPORT , KY, United States (KFFT) 38-11N 84-54W 236M
Feb 20, 2020 - 10:53 AM EST / 2020.02.20 1553 UTC
Wind: from the NNE (030 degrees) at 13 MPH (11 KT):0
Visibility: 10 mile(s):0
Sky conditions: clear
Temperature: 34.0 F (1.1 C)
Windchill: 24 F (-4 C):1
Dew Point: 19.9 F (-6.7 C)
Relative Humidity: 55%
Pressure (altimeter): 30.51 in. Hg (1033 hPa)
ob: KFFT 201553Z AUTO 03011KT 10SM CLR 01/M07 A3051 RMK AO2 SLP338 T00111067
cycle: 16

Station Type Date Time Source
KFFT TAF UTC NOAA

Error!

Example: see airport list